Time;durP1;ratioP1;P1;durP2;ratioP2;P2;SDS_P1;SDS_P2;PMS_P1;PMS_P2;Temp;Humidity;BMP_temperature;BMP_pressure;BME280_temperature;BME280_humidity;BME280_pressure;Samples;Min_cycle;Max_cycle;Signal;HPM_P1;HPM_P2
2023/10/14 00:00:26;;;;;;;12.73;7.88;;;;;;;;;;701437;27;68695;-66
2023/10/14 00:00:47;;;;;;;11.32;7.30;;;;;;;;;;702898;27;69927;-65
2023/10/14 00:01:14;;;;;;;11.70;7.35;;;;;;;;;;704096;27;4647;-63
2023/10/14 00:01:35;;;;;;;11.00;7.40;;;;;;;;;;698051;28;95134;-66
2023/10/14 00:02:22;;;;;;;11.70;7.50;;;;;;;;;;702592;28;1424;-66
2023/10/14 00:02:36;;;;;;;12.52;8.00;;;;;;;;;;700036;28;69493;-66
2023/10/14 00:03:18;;;;;;;10.82;7.70;;;;;;;;;;699879;28;1662;-65
2023/10/14 00:03:41;;;;;;;10.52;7.40;;;;;;;;;;698840;28;70716;-63
2023/10/14 00:04:04;;;;;;;10.70;7.60;;;;;;;;;;702147;28;1289;-65
2023/10/14 00:04:26;;;;;;;11.77;7.68;;;;;;;;;;700337;28;21118;-64
2023/10/14 00:04:46;;;;;;;11.07;7.35;;;;;;;;;;702423;28;1326;-65
2023/10/14 00:05:07;;;;;;;11.73;7.55;;;;;;;;;;702332;28;1463;-66
2023/10/14 00:05:28;;;;;;;13.82;7.63;;;;;;;;;;700796;28;1486;-63
2023/10/14 00:05:48;;;;;;;11.37;7.10;;;;;;;;;;701345;28;1312;-67
2023/10/14 00:06:11;;;;;;;9.93;7.17;;;;;;;;;;701871;28;1347;-63
2023/10/14 00:06:38;;;;;;;11.27;7.88;;;;;;;;;;702400;28;1623;-65
2023/10/14 00:07:05;;;;;;;11.75;7.25;;;;;;;;;;699656;28;69685;-65
2023/10/14 00:07:26;;;;;;;10.70;7.38;;;;;;;;;;697213;28;90164;-62
2023/10/14 00:07:46;;;;;;;10.50;7.77;;;;;;;;;;703378;28;1300;-64
2023/10/14 00:08:06;;;;;;;10.98;7.78;;;;;;;;;;702364;28;1398;-66
2023/10/14 00:08:31;;;;;;;11.47;8.07;;;;;;;;;;700385;28;2295;-65
2023/10/14 00:08:56;;;;;;;9.65;8.18;;;;;;;;;;699824;28;46269;-63
2023/10/14 00:09:16;;;;;;;9.50;6.38;;;;;;;;;;697962;28;49417;-63
2023/10/14 00:09:43;;;;;;;8.73;6.27;;;;;;;;;;703140;28;1269;-67
2023/10/14 00:10:06;;;;;;;11.73;7.45;;;;;;;;;;700860;28;70217;-65
2023/10/14 00:10:26;;;;;;;10.80;7.53;;;;;;;;;;698673;28;22426;-64
2023/10/14 00:10:47;;;;;;;11.37;7.83;;;;;;;;;;701078;28;1317;-67
2023/10/14 00:11:07;;;;;;;11.82;8.10;;;;;;;;;;701372;28;1346;-65
2023/10/14 00:11:35;;;;;;;12.97;7.80;;;;;;;;;;701971;28;1760;-64
2023/10/14 00:11:56;;;;;;;11.85;7.75;;;;;;;;;;701234;28;71084;-64
2023/10/14 00:12:17;;;;;;;11.60;7.40;;;;;;;;;;701883;28;1166;-66
2023/10/14 00:12:39;;;;;;;13.27;8.60;;;;;;;;;;702849;28;1304;-64
2023/10/14 00:12:59;;;;;;;13.43;8.20;;;;;;;;;;701729;28;1379;-64
2023/10/14 00:13:19;;;;;;;11.40;7.83;;;;;;;;;;700377;28;4490;-64
2023/10/14 00:13:42;;;;;;;12.07;7.50;;;;;;;;;;702814;28;1308;-64
2023/10/14 00:14:16;;;;;;;13.13;7.82;;;;;;;;;;702068;28;1340;-65
2023/10/14 00:14:36;;;;;;;12.38;7.65;;;;;;;;;;700032;28;69527;-64
2023/10/14 00:15:03;;;;;;;11.20;7.43;;;;;;;;;;702435;28;1388;-64
2023/10/14 00:15:23;;;;;;;10.32;7.78;;;;;;;;;;698794;28;70422;-63
2023/10/14 00:15:45;;;;;;;9.98;7.38;;;;;;;;;;703207;28;1992;-64
2023/10/14 00:16:09;;;;;;;9.77;7.82;;;;;;;;;;701202;28;4668;-64
2023/10/14 00:16:35;;;;;;;11.20;8.20;;;;;;;;;;700876;28;24461;-65
2023/10/14 00:16:56;;;;;;;11.73;7.82;;;;;;;;;;701122;28;46248;-65
2023/10/14 00:17:18;;;;;;;10.45;7.68;;;;;;;;;;700997;28;1441;-65
2023/10/14 00:17:41;;;;;;;12.70;8.30;;;;;;;;;;703476;28;1483;-65
2023/10/14 00:18:02;;;;;;;12.77;8.13;;;;;;;;;;703277;28;23216;-65
2023/10/14 00:18:24;;;;;;;12.93;8.20;;;;;;;;;;703454;27;1815;-65
2023/10/14 00:18:48;;;;;;;13.30;8.38;;;;;;;;;;704978;28;1447;-66
2023/10/14 00:19:11;;;;;;;12.50;8.57;;;;;;;;;;702983;27;22891;-67
2023/10/14 00:19:32;;;;;;;12.20;8.27;;;;;;;;;;702101;28;1265;-66
2023/10/14 00:19:55;;;;;;;12.75;8.15;;;;;;;;;;701080;28;4977;-65
2023/10/14 00:20:15;;;;;;;14.48;8.63;;;;;;;;;;698614;28;1837;-67
2023/10/14 00:20:36;;;;;;;13.70;8.75;;;;;;;;;;699928;28;1381;-66
2023/10/14 00:20:56;;;;;;;12.60;8.17;;;;;;;;;;699677;28;1285;-67
2023/10/14 00:21:17;;;;;;;11.63;8.40;;;;;;;;;;696478;28;1339;-65
2023/10/14 00:21:38;;;;;;;10.52;8.07;;;;;;;;;;697868;28;1498;-65
2023/10/14 00:22:00;;;;;;;9.98;7.90;;;;;;;;;;697575;28;1409;-64
2023/10/14 00:22:22;;;;;;;12.80;8.00;;;;;;;;;;697791;28;4511;-67
2023/10/14 00:22:44;;;;;;;13.00;7.88;;;;;;;;;;700169;28;1297;-66
2023/10/14 00:23:04;;;;;;;13.73;8.38;;;;;;;;;;697600;28;1428;-65
2023/10/14 00:23:26;;;;;;;13.57;8.80;;;;;;;;;;699972;28;3015;-66
2023/10/14 00:23:47;;;;;;;11.98;8.27;;;;;;;;;;703573;28;1372;-65
2023/10/14 00:24:08;;;;;;;11.65;8.05;;;;;;;;;;703945;28;1479;-65
2023/10/14 00:24:28;;;;;;;11.52;8.15;;;;;;;;;;702341;28;1749;-65
2023/10/14 00:24:48;;;;;;;12.23;8.07;;;;;;;;;;703470;28;1245;-65
2023/10/14 00:25:18;;;;;;;11.10;7.82;;;;;;;;;;702064;28;4512;-66
2023/10/14 00:25:39;;;;;;;16.80;8.70;;;;;;;;;;699345;28;69602;-65
2023/10/14 00:25:59;;;;;;;12.82;8.23;;;;;;;;;;701206;28;1463;-66
2023/10/14 00:26:20;;;;;;;13.97;8.40;;;;;;;;;;699638;28;1468;-66
2023/10/14 00:26:48;;;;;;;11.55;7.95;;;;;;;;;;702837;28;71123;-65
2023/10/14 00:27:08;;;;;;;12.40;8.23;;;;;;;;;;704378;27;1368;-66
2023/10/14 00:27:29;;;;;;;12.43;8.13;;;;;;;;;;704387;27;2617;-66
2023/10/14 00:27:50;;;;;;;13.87;8.40;;;;;;;;;;702260;28;1403;-66
2023/10/14 00:28:13;;;;;;;13.82;8.30;;;;;;;;;;697473;28;4567;-66
2023/10/14 00:28:34;;;;;;;16.45;8.85;;;;;;;;;;697559;28;26505;-65
2023/10/14 00:28:54;;;;;;;13.17;8.70;;;;;;;;;;698052;28;1448;-64
2023/10/14 00:29:35;;;;;;;13.03;8.10;;;;;;;;;;696338;28;1412;-67
2023/10/14 00:30:09;;;;;;;14.10;8.50;;;;;;;;;;695318;28;1256;-65
2023/10/14 00:30:31;;;;;;;14.25;8.43;;;;;;;;;;695991;28;69546;-66
2023/10/14 00:30:55;;;;;;;12.80;8.13;;;;;;;;;;700663;28;1274;-66
2023/10/14 00:31:15;;;;;;;12.02;7.75;;;;;;;;;;698445;28;23071;-65
2023/10/14 00:31:36;;;;;;;12.83;8.10;;;;;;;;;;702813;28;1555;-65
2023/10/14 00:31:58;;;;;;;11.77;7.67;;;;;;;;;;702237;28;1304;-66
2023/10/14 00:32:20;;;;;;;12.35;8.43;;;;;;;;;;700017;28;1776;-65
2023/10/14 00:32:40;;;;;;;12.55;8.13;;;;;;;;;;702923;28;1332;-65
2023/10/14 00:33:03;;;;;;;13.97;7.97;;;;;;;;;;695955;28;1388;-65
2023/10/14 00:33:24;;;;;;;13.80;8.43;;;;;;;;;;694757;28;2613;-62
2023/10/14 00:33:45;;;;;;;12.55;7.82;;;;;;;;;;694307;28;1394;-63
2023/10/14 00:34:06;;;;;;;11.75;8.02;;;;;;;;;;694718;28;4519;-64
2023/10/14 00:34:26;;;;;;;12.27;8.07;;;;;;;;;;690434;28;2233;-65
2023/10/14 00:34:47;;;;;;;10.10;7.90;;;;;;;;;;695532;28;1411;-64
2023/10/14 00:35:09;;;;;;;11.95;8.05;;;;;;;;;;697174;28;1621;-63
2023/10/14 00:35:29;;;;;;;12.95;7.90;;;;;;;;;;696701;28;1178;-62
2023/10/14 00:35:54;;;;;;;13.37;8.20;;;;;;;;;;697231;28;1906;-65
2023/10/14 00:36:16;;;;;;;13.82;8.13;;;;;;;;;;692401;28;71176;-64
2023/10/14 00:36:36;;;;;;;12.27;8.15;;;;;;;;;;699867;28;1332;-62
2023/10/14 00:36:56;;;;;;;12.23;8.30;;;;;;;;;;698642;28;1250;-64
2023/10/14 00:37:18;;;;;;;11.60;7.97;;;;;;;;;;698134;28;4474;-63
2023/10/14 00:37:38;;;;;;;13.55;8.00;;;;;;;;;;700988;28;923;-64
2023/10/14 00:38:08;;;;;;;13.00;8.00;;;;;;;;;;700086;28;1258;-64
2023/10/14 00:38:34;;;;;;;12.38;8.18;;;;;;;;;;696214;28;70924;-63
2023/10/14 00:38:57;;;;;;;12.57;8.07;;;;;;;;;;697960;28;47327;-63
2023/10/14 00:39:23;;;;;;;11.60;8.65;;;;;;;;;;697533;28;2684;-63
2023/10/14 00:39:43;;;;;;;13.48;8.77;;;;;;;;;;697970;28;72226;-62
2023/10/14 00:40:22;;;;;;;14.40;8.50;;;;;;;;;;701964;28;1324;-63
2023/10/14 00:40:45;;;;;;;15.40;9.18;;;;;;;;;;695976;28;89350;-62
2023/10/14 00:41:08;;;;;;;13.93;8.77;;;;;;;;;;696207;28;22465;-62
2023/10/14 00:41:28;;;;;;;15.35;8.30;;;;;;;;;;693704;28;1887;-62
2023/10/14 00:41:52;;;;;;;15.07;8.27;;;;;;;;;;696883;28;1363;-61
2023/10/14 00:42:12;;;;;;;15.40;8.57;;;;;;;;;;694660;28;5665;-62
2023/10/14 00:42:33;;;;;;;13.33;8.57;;;;;;;;;;691925;28;1727;-62
2023/10/14 00:42:55;;;;;;;14.43;8.67;;;;;;;;;;696241;28;1515;-62
2023/10/14 00:43:16;;;;;;;16.15;9.60;;;;;;;;;;694208;28;4766;-65
2023/10/14 00:43:36;;;;;;;14.60;9.60;;;;;;;;;;695174;28;1432;-62
2023/10/14 00:43:57;;;;;;;14.07;8.77;;;;;;;;;;696223;28;1420;-62
2023/10/14 00:44:24;;;;;;;14.10;9.10;;;;;;;;;;697578;28;1798;-61
2023/10/14 00:44:46;;;;;;;16.08;9.30;;;;;;;;;;692888;28;69034;-61
2023/10/14 00:45:09;;;;;;;16.85;9.05;;;;;;;;;;694330;28;1429;-61
2023/10/14 00:45:29;;;;;;;15.70;8.90;;;;;;;;;;695259;28;1737;-62
2023/10/14 00:45:52;;;;;;;13.50;8.83;;;;;;;;;;695604;28;1523;-62
2023/10/14 00:46:14;;;;;;;14.10;9.10;;;;;;;;;;695125;28;4486;-62
2023/10/14 00:46:35;;;;;;;13.30;9.45;;;;;;;;;;698023;28;1297;-60
2023/10/14 00:46:56;;;;;;;15.23;9.25;;;;;;;;;;699905;28;1377;-62
2023/10/14 00:47:16;;;;;;;14.45;9.40;;;;;;;;;;695284;28;1823;-61
2023/10/14 00:47:40;;;;;;;13.30;8.80;;;;;;;;;;698818;28;1305;-61
2023/10/14 00:48:00;;;;;;;11.57;8.93;;;;;;;;;;696647;28;22418;-61
2023/10/14 00:48:27;;;;;;;13.33;9.10;;;;;;;;;;694060;28;2318;-61
2023/10/14 00:48:48;;;;;;;13.60;9.35;;;;;;;;;;693769;28;69724;-60
2023/10/14 00:49:11;;;;;;;14.65;9.02;;;;;;;;;;699229;28;4560;-61
2023/10/14 00:49:33;;;;;;;14.57;8.80;;;;;;;;;;699317;28;1941;-59
2023/10/14 00:49:58;;;;;;;11.52;8.43;;;;;;;;;;694764;28;1479;-60
2023/10/14 00:50:44;;;;;;;11.63;9.15;;;;;;;;;;698525;28;68594;-62
2023/10/14 00:51:05;;;;;;;12.85;9.45;;;;;;;;;;700650;28;1372;-63
2023/10/14 00:51:28;;;;;;;14.57;9.47;;;;;;;;;;699558;28;2341;-65
2023/10/14 00:51:51;;;;;;;13.40;9.23;;;;;;;;;;701267;28;24371;-61
2023/10/14 00:52:19;;;;;;;13.38;10.15;;;;;;;;;;701195;28;4560;-62
2023/10/14 00:52:39;;;;;;;15.90;9.68;;;;;;;;;;696142;28;71564;-64
2023/10/14 00:53:00;;;;;;;14.95;8.73;;;;;;;;;;699373;28;1234;-60
2023/10/14 00:53:21;;;;;;;15.13;9.63;;;;;;;;;;697692;28;1605;-61
2023/10/14 00:53:52;;;;;;;13.13;9.23;;;;;;;;;;700049;28;1450;-61
2023/10/14 00:54:18;;;;;;;14.50;9.43;;;;;;;;;;697345;28;72003;-60
2023/10/14 00:55:12;;;;;;;12.85;9.13;;;;;;;;;;696578;28;72039;-60
2023/10/14 00:55:53;;;;;;;13.73;9.05;;;;;;;;;;696350;28;69735;-60
2023/10/14 00:56:18;;;;;;;14.57;9.10;;;;;;;;;;695591;28;68141;-60
2023/10/14 00:56:42;;;;;;;12.52;9.07;;;;;;;;;;696898;28;45981;-60
2023/10/14 00:57:40;;;;;;;11.73;9.00;;;;;;;;;;697256;28;71823;-59
2023/10/14 00:58:00;;;;;;;15.60;9.63;;;;;;;;;;699008;28;1588;-60
2023/10/14 00:58:23;;;;;;;16.33;9.50;;;;;;;;;;695621;28;4617;-60
2023/10/14 00:58:49;;;;;;;12.82;8.90;;;;;;;;;;697948;28;1349;-60
2023/10/14 00:59:10;;;;;;;14.20;9.48;;;;;;;;;;695626;28;71374;-62
2023/10/14 00:59:30;;;;;;;12.38;9.15;;;;;;;;;;697833;28;2446;-60
2023/10/14 00:59:53;;;;;;;14.03;9.07;;;;;;;;;;699371;28;1400;-60
2023/10/14 01:00:19;;;;;;;12.85;9.25;;;;;;;;;;700577;28;1587;-62
2023/10/14 01:00:57;;;;;;;11.55;8.55;;;;;;;;;;698282;28;70132;-61
2023/10/14 01:01:17;;;;;;;13.63;9.32;;;;;;;;;;696011;28;71683;-62
2023/10/14 01:02:31;;;;;;;12.95;8.77;;;;;;;;;;688559;28;70134;-60
2023/10/14 01:02:52;;;;;;;13.57;8.80;;;;;;;;;;694818;28;1397;-60
2023/10/14 01:03:15;;;;;;;12.95;9.10;;;;;;;;;;693589;28;1563;-61
2023/10/14 01:03:36;;;;;;;13.65;9.40;;;;;;;;;;693652;28;23785;-62
2023/10/14 01:04:17;;;;;;;13.25;9.38;;;;;;;;;;705251;27;1359;-62
2023/10/14 01:04:40;;;;;;;13.88;9.27;;;;;;;;;;700496;28;89564;-64
2023/10/14 01:05:08;;;;;;;12.20;8.98;;;;;;;;;;702978;28;851;-60
2023/10/14 01:05:29;;;;;;;13.40;8.90;;;;;;;;;;698778;28;70063;-62
2023/10/14 01:05:50;;;;;;;10.75;8.43;;;;;;;;;;703833;28;935;-61
2023/10/14 01:06:54;;;;;;;14.25;9.20;;;;;;;;;;697921;28;68611;-62
2023/10/14 01:07:14;;;;;;;14.55;9.18;;;;;;;;;;697466;28;93277;-62
2023/10/14 01:07:38;;;;;;;14.83;9.20;;;;;;;;;;700372;28;1751;-60
2023/10/14 01:08:00;;;;;;;13.10;9.13;;;;;;;;;;699155;28;1917;-61
2023/10/14 01:08:22;;;;;;;15.65;8.77;;;;;;;;;;693734;28;1505;-62
2023/10/14 01:08:43;;;;;;;14.88;9.07;;;;;;;;;;694793;28;1436;-60
2023/10/14 01:09:10;;;;;;;13.93;9.73;;;;;;;;;;695939;28;1296;-61
2023/10/14 01:09:34;;;;;;;13.02;9.18;;;;;;;;;;693705;28;69911;-60
2023/10/14 01:09:54;;;;;;;12.90;8.38;;;;;;;;;;698634;28;24269;-59
2023/10/14 01:10:24;;;;;;;13.80;8.70;;;;;;;;;;700856;28;4584;-61
2023/10/14 01:10:44;;;;;;;15.35;8.85;;;;;;;;;;699427;28;68954;-60
2023/10/14 01:11:07;;;;;;;14.03;8.53;;;;;;;;;;699504;28;1424;-62
2023/10/14 01:11:27;;;;;;;12.38;8.60;;;;;;;;;;696233;28;1816;-60
2023/10/14 01:11:47;;;;;;;14.40;9.23;;;;;;;;;;697839;28;895;-62
2023/10/14 01:12:18;;;;;;;15.60;9.70;;;;;;;;;;694569;28;1199;-62
2023/10/14 01:12:45;;;;;;;13.60;8.50;;;;;;;;;;689604;28;70449;-62
2023/10/14 01:13:14;;;;;;;12.23;8.77;;;;;;;;;;691586;28;68530;-60
2023/10/14 01:13:34;;;;;;;12.55;8.73;;;;;;;;;;695817;28;69877;-60
2023/10/14 01:14:04;;;;;;;12.45;8.55;;;;;;;;;;700693;28;1014;-60
2023/10/14 01:14:24;;;;;;;12.75;8.18;;;;;;;;;;698241;28;70925;-59
2023/10/14 01:14:52;;;;;;;14.18;8.73;;;;;;;;;;702009;28;883;-60
2023/10/14 01:15:21;;;;;;;14.05;8.07;;;;;;;;;;702136;28;48536;-60
2023/10/14 01:15:48;;;;;;;14.68;8.13;;;;;;;;;;701107;28;68763;-60
2023/10/14 01:16:08;;;;;;;14.32;8.20;;;;;;;;;;696109;28;70333;-59
2023/10/14 01:16:31;;;;;;;15.00;8.20;;;;;;;;;;696577;28;1765;-60
2023/10/14 01:16:51;;;;;;;14.13;8.55;;;;;;;;;;695944;28;2337;-60
2023/10/14 01:17:20;;;;;;;12.23;8.07;;;;;;;;;;696813;28;1184;-61
2023/10/14 01:17:42;;;;;;;13.55;8.27;;;;;;;;;;695880;28;68380;-61
2023/10/14 01:18:02;;;;;;;11.48;8.07;;;;;;;;;;695020;28;1494;-61
2023/10/14 01:18:23;;;;;;;12.83;8.43;;;;;;;;;;697184;28;1584;-60
2023/10/14 01:18:47;;;;;;;13.27;8.73;;;;;;;;;;700603;28;1022;-60
2023/10/14 01:19:11;;;;;;;12.25;8.30;;;;;;;;;;699552;28;23637;-61
2023/10/14 01:19:32;;;;;;;12.13;8.50;;;;;;;;;;700727;28;24085;-59
2023/10/14 01:19:53;;;;;;;10.88;7.93;;;;;;;;;;703420;28;891;-59
2023/10/14 01:20:39;;;;;;;11.07;7.70;;;;;;;;;;700845;28;1806;-60
2023/10/14 01:21:00;;;;;;;10.82;7.70;;;;;;;;;;700323;28;69909;-61
2023/10/14 01:21:20;;;;;;;13.43;7.90;;;;;;;;;;698663;28;1106;-60
2023/10/14 01:21:41;;;;;;;15.93;8.40;;;;;;;;;;698449;28;888;-61
2023/10/14 01:22:02;;;;;;;11.88;7.70;;;;;;;;;;698191;28;1022;-60
2023/10/14 01:22:22;;;;;;;12.82;8.13;;;;;;;;;;695834;28;4634;-60
2023/10/14 01:22:43;;;;;;;14.07;7.95;;;;;;;;;;698848;28;1149;-61
2023/10/14 01:23:07;;;;;;;14.45;8.25;;;;;;;;;;700603;28;1596;-61
2023/10/14 01:23:27;;;;;;;13.43;8.13;;;;;;;;;;699836;28;24086;-60
2023/10/14 01:23:50;;;;;;;12.43;7.93;;;;;;;;;;703349;28;1307;-62
2023/10/14 01:24:16;;;;;;;12.30;7.82;;;;;;;;;;703016;28;1016;-60
2023/10/14 01:24:39;;;;;;;11.70;7.78;;;;;;;;;;697899;28;72443;-60
2023/10/14 01:25:05;;;;;;;10.82;7.65;;;;;;;;;;700603;28;1006;-60
2023/10/14 01:25:31;;;;;;;14.18;7.82;;;;;;;;;;693942;28;90183;-61
2023/10/14 01:25:52;;;;;;;10.98;7.38;;;;;;;;;;696243;28;69977;-61
2023/10/14 01:26:13;;;;;;;11.10;7.35;;;;;;;;;;698082;28;956;-59
2023/10/14 01:26:33;;;;;;;12.52;7.38;;;;;;;;;;695917;28;1556;-60
2023/10/14 01:27:04;;;;;;;11.57;7.50;;;;;;;;;;700171;28;1306;-60
2023/10/14 01:27:33;;;;;;;12.02;7.70;;;;;;;;;;698721;28;67779;-59
2023/10/14 01:27:58;;;;;;;11.95;7.82;;;;;;;;;;700465;28;69014;-61
2023/10/14 01:28:23;;;;;;;11.43;8.00;;;;;;;;;;699333;28;46978;-61
2023/10/14 01:28:52;;;;;;;11.73;7.68;;;;;;;;;;701022;28;47873;-60
2023/10/14 01:29:14;;;;;;;14.60;7.70;;;;;;;;;;701390;28;70835;-60
2023/10/14 01:29:41;;;;;;;10.73;7.72;;;;;;;;;;701703;28;2424;-59
2023/10/14 01:30:10;;;;;;;10.77;8.13;;;;;;;;;;698716;28;71308;-60
2023/10/14 01:30:32;;;;;;;10.80;7.22;;;;;;;;;;692087;28;70915;-60
2023/10/14 01:31:24;;;;;;;14.00;7.63;;;;;;;;;;698041;28;1042;-60
2023/10/14 01:31:59;;;;;;;11.73;7.40;;;;;;;;;;694804;28;90712;-60
2023/10/14 01:32:24;;;;;;;11.38;7.60;;;;;;;;;;696023;28;69196;-61
2023/10/14 01:33:12;;;;;;;14.35;7.82;;;;;;;;;;700455;28;1115;-60
2023/10/14 01:33:35;;;;;;;11.05;7.18;;;;;;;;;;697272;28;69761;-60
2023/10/14 01:34:04;;;;;;;11.27;7.75;;;;;;;;;;698968;28;1029;-59
2023/10/14 01:34:28;;;;;;;12.40;7.60;;;;;;;;;;693300;28;72367;-60
2023/10/14 01:34:58;;;;;;;11.85;7.47;;;;;;;;;;698348;28;24187;-60
2023/10/14 01:35:27;;;;;;;11.60;7.60;;;;;;;;;;698960;28;68952;-61
2023/10/14 01:35:51;;;;;;;11.98;7.55;;;;;;;;;;698836;28;69977;-60
2023/10/14 01:36:11;;;;;;;13.32;7.47;;;;;;;;;;697764;28;46307;-60
2023/10/14 01:36:37;;;;;;;11.90;6.88;;;;;;;;;;701792;28;1493;-61
2023/10/14 01:37:12;;;;;;;11.88;7.28;;;;;;;;;;698531;28;71645;-62
2023/10/14 01:37:37;;;;;;;10.95;7.22;;;;;;;;;;692012;28;88353;-61
2023/10/14 01:37:59;;;;;;;11.95;6.97;;;;;;;;;;693107;28;23358;-61
2023/10/14 01:38:23;;;;;;;12.50;7.47;;;;;;;;;;694920;28;2549;-63
2023/10/14 01:38:51;;;;;;;11.70;6.90;;;;;;;;;;697461;28;24809;-61
2023/10/14 01:39:20;;;;;;;13.45;7.15;;;;;;;;;;698534;28;69141;-63
2023/10/14 01:39:48;;;;;;;15.27;7.60;;;;;;;;;;698160;28;92768;-61
2023/10/14 01:40:24;;;;;;;9.55;6.97;;;;;;;;;;699533;28;69998;-61
2023/10/14 01:40:54;;;;;;;12.43;7.88;;;;;;;;;;701061;28;69451;-60
2023/10/14 01:41:14;;;;;;;9.77;7.10;;;;;;;;;;703451;28;72248;-61
2023/10/14 01:41:35;;;;;;;11.80;7.10;;;;;;;;;;702380;27;2329;-61
2023/10/14 01:41:56;;;;;;;11.15;6.88;;;;;;;;;;704398;28;1235;-61
2023/10/14 01:42:18;;;;;;;10.65;6.63;;;;;;;;;;702877;28;5799;-60
2023/10/14 01:42:38;;;;;;;12.98;7.20;;;;;;;;;;701102;28;2370;-61
2023/10/14 01:43:05;;;;;;;12.07;7.10;;;;;;;;;;703300;28;1309;-61
2023/10/14 01:43:30;;;;;;;10.77;7.00;;;;;;;;;;698269;28;90910;-60
2023/10/14 01:43:52;;;;;;;10.25;7.03;;;;;;;;;;702938;28;23627;-61
2023/10/14 01:44:21;;;;;;;12.98;7.20;;;;;;;;;;703677;28;927;-59
2023/10/14 01:44:41;;;;;;;12.18;6.97;;;;;;;;;;700121;28;69239;-61
2023/10/14 01:45:04;;;;;;;10.77;6.97;;;;;;;;;;701582;28;1034;-61
2023/10/14 01:45:30;;;;;;;11.35;6.80;;;;;;;;;;699047;28;2220;-61
2023/10/14 01:46:18;;;;;;;12.80;7.40;;;;;;;;;;698599;28;4484;-61
2023/10/14 01:46:45;;;;;;;11.40;6.97;;;;;;;;;;698125;28;46865;-60
2023/10/14 01:47:05;;;;;;;12.18;7.10;;;;;;;;;;697203;28;69429;-60
2023/10/14 01:47:26;;;;;;;10.40;7.25;;;;;;;;;;700641;28;2229;-61
2023/10/14 01:47:49;;;;;;;13.10;7.47;;;;;;;;;;703173;28;1292;-60
2023/10/14 01:48:31;;;;;;;13.02;7.15;;;;;;;;;;700645;28;1452;-61
2023/10/14 01:48:52;;;;;;;11.73;6.90;;;;;;;;;;699868;28;1430;-61
2023/10/14 01:49:19;;;;;;;11.25;7.20;;;;;;;;;;697697;28;4537;-62
2023/10/14 01:49:39;;;;;;;11.43;6.93;;;;;;;;;;692001;28;70003;-61
2023/10/14 01:50:00;;;;;;;10.13;7.13;;;;;;;;;;697995;28;856;-61
2023/10/14 01:50:22;;;;;;;10.10;6.85;;;;;;;;;;694528;28;1306;-60
2023/10/14 01:50:46;;;;;;;10.98;6.65;;;;;;;;;;697182;28;1310;-62
2023/10/14 01:51:06;;;;;;;11.55;6.78;;;;;;;;;;697596;28;22374;-61
2023/10/14 01:51:27;;;;;;;12.63;6.70;;;;;;;;;;698935;28;1724;-62
2023/10/14 01:51:50;;;;;;;10.63;6.43;;;;;;;;;;696463;28;1286;-62
2023/10/14 01:52:15;;;;;;;11.35;7.00;;;;;;;;;;700971;28;4634;-61
2023/10/14 01:52:36;;;;;;;10.73;6.43;;;;;;;;;;697603;28;71206;-61
2023/10/14 01:53:00;;;;;;;10.80;6.30;;;;;;;;;;698907;28;954;-61
2023/10/14 01:53:23;;;;;;;10.85;6.88;;;;;;;;;;698234;28;24398;-62
2023/10/14 01:53:43;;;;;;;10.55;6.93;;;;;;;;;;698182;28;1469;-61
2023/10/14 01:54:06;;;;;;;11.18;6.40;;;;;;;;;;700626;28;916;-62
2023/10/14 01:54:27;;;;;;;11.65;6.55;;;;;;;;;;701137;28;1879;-62
2023/10/14 01:54:47;;;;;;;13.32;6.40;;;;;;;;;;702189;28;951;-61
2023/10/14 01:55:09;;;;;;;11.20;6.13;;;;;;;;;;702928;28;4467;-61
2023/10/14 01:55:29;;;;;;;10.60;6.30;;;;;;;;;;700952;28;2206;-62
2023/10/14 01:55:52;;;;;;;10.65;6.57;;;;;;;;;;702465;28;1914;-62
2023/10/14 01:56:12;;;;;;;9.38;6.10;;;;;;;;;;703781;28;1310;-62
2023/10/14 01:56:33;;;;;;;9.13;6.10;;;;;;;;;;700190;28;1222;-61
2023/10/14 01:56:54;;;;;;;10.25;5.85;;;;;;;;;;701526;28;1410;-61
2023/10/14 01:57:17;;;;;;;10.57;5.93;;;;;;;;;;701442;28;1285;-62
2023/10/14 01:57:38;;;;;;;9.38;5.97;;;;;;;;;;699881;28;1344;-63
2023/10/14 01:57:58;;;;;;;11.02;5.95;;;;;;;;;;698527;28;1318;-62
2023/10/14 01:58:22;;;;;;;10.97;5.97;;;;;;;;;;697968;28;4435;-62
2023/10/14 01:58:45;;;;;;;9.05;6.07;;;;;;;;;;695250;28;26148;-63
2023/10/14 01:59:05;;;;;;;9.35;6.03;;;;;;;;;;697306;28;1476;-63
2023/10/14 01:59:27;;;;;;;10.20;6.37;;;;;;;;;;697512;28;2169;-63
2023/10/14 01:59:49;;;;;;;11.18;6.70;;;;;;;;;;696258;28;1546;-62
2023/10/14 02:00:24;;;;;;;9.55;6.20;;;;;;;;;;698615;28;1265;-63
2023/10/14 02:00:46;;;;;;;9.32;5.85;;;;;;;;;;698740;28;69454;-62
2023/10/14 02:01:14;;;;;;;8.80;5.55;;;;;;;;;;700701;28;4620;-64
2023/10/14 02:01:41;;;;;;;10.27;6.20;;;;;;;;;;698005;28;69776;-61
2023/10/14 02:02:04;;;;;;;8.18;5.40;;;;;;;;;;696198;28;69785;-61
2023/10/14 02:02:27;;;;;;;9.88;5.72;;;;;;;;;;693365;28;22504;-62
2023/10/14 02:02:48;;;;;;;10.68;5.60;;;;;;;;;;694212;28;1323;-62
2023/10/14 02:03:10;;;;;;;11.55;6.03;;;;;;;;;;696341;28;1455;-61
2023/10/14 02:03:33;;;;;;;12.50;6.10;;;;;;;;;;693626;28;1334;-62
2023/10/14 02:03:54;;;;;;;9.30;5.60;;;;;;;;;;696117;28;1306;-63
2023/10/14 02:04:15;;;;;;;9.85;5.57;;;;;;;;;;698270;28;4562;-63
2023/10/14 02:04:39;;;;;;;9.50;5.75;;;;;;;;;;697792;28;2695;-63
2023/10/14 02:04:59;;;;;;;9.68;5.93;;;;;;;;;;701265;28;2213;-63
2023/10/14 02:05:21;;;;;;;9.37;5.70;;;;;;;;;;697602;28;860;-62
2023/10/14 02:05:44;;;;;;;8.73;5.93;;;;;;;;;;693527;28;72800;-63
2023/10/14 02:06:16;;;;;;;10.50;5.90;;;;;;;;;;696375;28;1125;-63
2023/10/14 02:06:43;;;;;;;9.45;5.85;;;;;;;;;;697218;28;69433;-63
2023/10/14 02:07:26;;;;;;;10.48;5.60;;;;;;;;;;695687;28;68597;-63
2023/10/14 02:07:46;;;;;;;8.80;5.68;;;;;;;;;;694920;28;89212;-64
2023/10/14 02:08:16;;;;;;;9.95;5.43;;;;;;;;;;699464;28;983;-63
2023/10/14 02:08:36;;;;;;;9.77;5.30;;;;;;;;;;694318;28;71673;-64
2023/10/14 02:08:58;;;;;;;9.77;5.07;;;;;;;;;;695535;28;1318;-63
2023/10/14 02:09:19;;;;;;;9.38;5.60;;;;;;;;;;697275;28;1292;-63
2023/10/14 02:09:39;;;;;;;8.75;4.90;;;;;;;;;;698262;28;1169;-61
2023/10/14 02:10:03;;;;;;;9.33;5.30;;;;;;;;;;698980;28;816;-62
2023/10/14 02:10:23;;;;;;;9.75;5.43;;;;;;;;;;697545;28;23010;-62
2023/10/14 02:10:47;;;;;;;9.90;5.47;;;;;;;;;;701593;28;1579;-63
2023/10/14 02:11:07;;;;;;;8.60;5.20;;;;;;;;;;699297;28;25032;-63
2023/10/14 02:11:33;;;;;;;8.85;5.18;;;;;;;;;;697564;28;1796;-62
2023/10/14 02:11:54;;;;;;;8.38;4.95;;;;;;;;;;691568;28;69745;-61
2023/10/14 02:12:15;;;;;;;8.07;4.80;;;;;;;;;;691472;28;5055;-63
2023/10/14 02:12:36;;;;;;;8.93;5.00;;;;;;;;;;692207;28;1814;-62
2023/10/14 02:13:00;;;;;;;8.63;5.03;;;;;;;;;;695577;28;1417;-62
2023/10/14 02:13:21;;;;;;;9.88;5.03;;;;;;;;;;695174;28;49932;-63
2023/10/14 02:13:42;;;;;;;8.75;5.10;;;;;;;;;;698518;28;2474;-62
2023/10/14 02:14:07;;;;;;;8.90;4.88;;;;;;;;;;701835;28;905;-65
2023/10/14 02:14:27;;;;;;;8.93;5.32;;;;;;;;;;698964;28;26221;-61
2023/10/14 02:14:57;;;;;;;7.55;5.22;;;;;;;;;;698581;28;859;-60
2023/10/14 02:15:17;;;;;;;10.65;5.75;;;;;;;;;;696158;28;70118;-59
2023/10/14 02:15:37;;;;;;;9.70;5.47;;;;;;;;;;696987;28;2636;-60
2023/10/14 02:16:06;;;;;;;8.77;5.13;;;;;;;;;;697709;28;1202;-60
2023/10/14 02:16:40;;;;;;;7.78;5.03;;;;;;;;;;695207;28;88564;-59
2023/10/14 02:17:01;;;;;;;9.77;4.90;;;;;;;;;;695892;28;94965;-59
2023/10/14 02:17:21;;;;;;;9.93;4.23;;;;;;;;;;698637;28;1284;-59
2023/10/14 02:17:42;;;;;;;10.77;4.40;;;;;;;;;;694368;28;2306;-60
2023/10/14 02:18:03;;;;;;;8.55;4.10;;;;;;;;;;695562;28;1495;-60
2023/10/14 02:18:23;;;;;;;9.43;4.45;;;;;;;;;;694104;28;2125;-61
2023/10/14 02:18:43;;;;;;;8.40;4.07;;;;;;;;;;696239;28;872;-59
2023/10/14 02:19:20;;;;;;;8.52;3.70;;;;;;;;;;697954;28;4663;-60
2023/10/14 02:19:41;;;;;;;7.65;3.60;;;;;;;;;;696874;28;72360;-60
2023/10/14 02:20:19;;;;;;;8.43;3.80;;;;;;;;;;701774;28;931;-59
2023/10/14 02:20:56;;;;;;;7.15;3.60;;;;;;;;;;699072;28;69003;-60
2023/10/14 02:21:17;;;;;;;7.75;3.47;;;;;;;;;;698855;28;69161;-61
2023/10/14 02:21:42;;;;;;;6.00;3.50;;;;;;;;;;700989;28;3063;-60
2023/10/14 02:22:02;;;;;;;5.60;3.20;;;;;;;;;;696233;28;49226;-60
2023/10/14 02:22:23;;;;;;;5.72;3.05;;;;;;;;;;697402;28;4583;-59
2023/10/14 02:22:44;;;;;;;5.88;2.50;;;;;;;;;;695690;28;1333;-59
2023/10/14 02:23:05;;;;;;;5.57;2.47;;;;;;;;;;693108;28;1204;-60
2023/10/14 02:23:26;;;;;;;6.07;2.33;;;;;;;;;;689935;28;1763;-60
2023/10/14 02:23:49;;;;;;;4.22;2.08;;;;;;;;;;694370;28;964;-59
2023/10/14 02:24:12;;;;;;;4.03;1.60;;;;;;;;;;696112;28;1302;-59
2023/10/14 02:24:32;;;;;;;4.43;1.67;;;;;;;;;;694319;28;23297;-59
2023/10/14 02:24:56;;;;;;;3.13;1.50;;;;;;;;;;696937;28;1196;-57
2023/10/14 02:25:17;;;;;;;2.50;1.40;;;;;;;;;;696343;28;22994;-63
2023/10/14 02:25:38;;;;;;;2.85;1.48;;;;;;;;;;696285;28;2308;-61
2023/10/14 02:26:00;;;;;;;4.27;1.60;;;;;;;;;;694933;28;1374;-61
2023/10/14 02:26:25;;;;;;;4.00;1.58;;;;;;;;;;693361;28;978;-60
2023/10/14 02:26:48;;;;;;;2.92;1.50;;;;;;;;;;696607;28;68738;-62
2023/10/14 02:27:14;;;;;;;2.55;1.30;;;;;;;;;;701538;28;962;-66
2023/10/14 02:27:35;;;;;;;2.60;1.10;;;;;;;;;;697043;28;70133;-61
2023/10/14 02:27:55;;;;;;;2.17;1.10;;;;;;;;;;703823;28;1013;-63